Ultra Vanscoy — 3FJD4 — position and weather

sailwx.info

Track history (hours):
 
Tides and Currents Weather Stations Pressure Air Temp Water Temp Dewpoint Dewpoint Depression Visibility Wind Speed Wind Dir Waves Ship Positions

Ultra Vanscoy

Last reported at 2018-Feb-24 22:52 UTC. Time now 2018-Feb-24 23:35 UTC.
Position N 46°12' W 123°48'.

Length 180 m; draft 6.8 m.

Type: Ship (hazmat cat D). MMSI: 371410000.

Date/timePositionNaut miles runAvg speedWind from/ knotsBaromVisibWave heightAir tempDewpointWater temp
2018-Feb-24 22:52N 46°12' W 123°48'0 0.0
2018-Feb-24 22:19N 46°12' W 123°48'0 0.0
2018-Feb-24 21:58N 46°12' W 123°48'0 0.0
2018-Feb-24 21:28N 46°12' W 123°48'0 0.0
2018-Feb-24 20:58N 46°12' W 123°48'0 0.0
2018-Feb-24 20:28N 46°12' W 123°48'0 0.0
2018-Feb-24 19:55N 46°12' W 123°48'0 0.0
2018-Feb-24 19:28N 46°12' W 123°48'0 0.0
2018-Feb-24 18:58N 46°12' W 123°48'0 0.0
2018-Feb-24 18:28N 46°12' W 123°48'0 0.0
2018-Feb-24 17:58N 46°12' W 123°48'0 0.1
2018-Feb-24 17:28N 46°12' W 123°48'0 0.2
2018-Feb-24 16:55N 46°12' W 123°48'0 0.4
2018-Feb-24 16:28N 46°12' W 123°48'0 0.0
2018-Feb-24 15:58N 46°12' W 123°48'0 0.0
2018-Feb-24 15:22N 46°12' W 123°48'0 0.0
2018-Feb-24 14:59N 46°12' W 123°48'0 0.0
2018-Feb-24 14:29N 46°12' W 123°48'0 0.0
2018-Feb-24 13:55N 46°12' W 123°48'1 2.5
2018-Feb-24 13:30N 46°12' W 123°50'810.3
2018-Feb-24 12:45N 46°15' W 123°60'313.5
2018-Feb-24 12:31N 46°15' W 124°05'611.1
2018-Feb-24 12:00N 46°11' W 124°09'3 6.0
2018-Feb-24 11:30N 46°10' W 124°14'4 7.6
2018-Feb-24 11:00N 46°11' W 124°19'3 5.1
2018-Feb-24 10:30N 46°12' W 124°22'5 9.3
2018-Feb-24 10:00N 46°12' W 124°29'4 8.7
2018-Feb-24 09:30N 46°13' W 124°35'3 5.7
2018-Feb-24 09:00N 46°13' W 124°39'4 7.8
2018-Feb-24 08:30N 46°14' W 124°45'611.4
2018-Feb-24 08:00N 46°14' W 124°53'612.6
2018-Feb-24 07:30N 46°15' W 125°02'612.7
2018-Feb-24 07:00N 46°16' W 125°11'612.6
2018-Feb-24 06:30N 46°16' W 125°20'612.8
2018-Feb-24 06:00N 46°17' W 125°30'612.7
2018-Feb-24 05:30N 46°17' W 125°39'  
Track history (hours):
 
Tides and Currents Weather Stations Pressure Air Temp Water Temp Dewpoint Dewpoint Depression Visibility Wind Speed Wind Dir Waves Ship Positions

Ultra Vanscoy

Last reported at 2018-Feb-24 22:52 UTC. Time now 2018-Feb-24 23:35 UTC.
Position N 46°12' W 123°48'.

Length 180 m; draft 6.8 m.

Type: Ship (hazmat cat D). MMSI: 371410000.

Date/timePositionNaut miles runAvg speedWind from/ knotsBaromVisibWave heightAir tempDewpointWater temp
2018-Feb-24 22:52N 46°12' W 123°48'0 0.0
2018-Feb-24 22:19N 46°12' W 123°48'0 0.0
2018-Feb-24 21:58N 46°12' W 123°48'0 0.0
2018-Feb-24 21:28N 46°12' W 123°48'0 0.0
2018-Feb-24 20:58N 46°12' W 123°48'0 0.0
2018-Feb-24 20:28N 46°12' W 123°48'0 0.0
2018-Feb-24 19:55N 46°12' W 123°48'0 0.0
2018-Feb-24 19:28N 46°12' W 123°48'0 0.0
2018-Feb-24 18:58N 46°12' W 123°48'0 0.0
2018-Feb-24 18:28N 46°12' W 123°48'0 0.0
2018-Feb-24 17:58N 46°12' W 123°48'0 0.1
2018-Feb-24 17:28N 46°12' W 123°48'0 0.2
2018-Feb-24 16:55N 46°12' W 123°48'0 0.4
2018-Feb-24 16:28N 46°12' W 123°48'0 0.0
2018-Feb-24 15:58N 46°12' W 123°48'0 0.0
2018-Feb-24 15:22N 46°12' W 123°48'0 0.0
2018-Feb-24 14:59N 46°12' W 123°48'0 0.0
2018-Feb-24 14:29N 46°12' W 123°48'0 0.0
2018-Feb-24 13:55N 46°12' W 123°48'1 2.5
2018-Feb-24 13:30N 46°12' W 123°50'810.3
2018-Feb-24 12:45N 46°15' W 123°60'313.5
2018-Feb-24 12:31N 46°15' W 124°05'611.1
2018-Feb-24 12:00N 46°11' W 124°09'3 6.0
2018-Feb-24 11:30N 46°10' W 124°14'4 7.6
2018-Feb-24 11:00N 46°11' W 124°19'3 5.1
2018-Feb-24 10:30N 46°12' W 124°22'5 9.3
2018-Feb-24 10:00N 46°12' W 124°29'4 8.7
2018-Feb-24 09:30N 46°13' W 124°35'3 5.7
2018-Feb-24 09:00N 46°13' W 124°39'4 7.8
2018-Feb-24 08:30N 46°14' W 124°45'611.4
2018-Feb-24 08:00N 46°14' W 124°53'612.6
2018-Feb-24 07:30N 46°15' W 125°02'612.7
2018-Feb-24 07:00N 46°16' W 125°11'612.6
2018-Feb-24 06:30N 46°16' W 125°20'612.8
2018-Feb-24 06:00N 46°17' W 125°30'612.7
2018-Feb-24 05:30N 46°17' W 125°39'  

Dump ship's entire track history